Time;durP1;ratioP1;P1;durP2;ratioP2;P2;SDS_P1;SDS_P2;PMS_P1;PMS_P2;Temp;Humidity;BMP_temperature;BMP_pressure;BME280_temperature;BME280_humidity;BME280_pressure;Samples;Min_cycle;Max_cycle;Signal;HPM_P1;HPM_P2
2022/03/18 00:02:17;;;;;;;3.90;1.42;;;9.50;67.80;;;;;;20700855;28;20030;-79
2022/03/18 00:12:18;;;;;;;6.25;1.88;;;9.50;67.00;;;;;;20695620;28;20056;-79
2022/03/18 00:22:18;;;;;;;2.63;1.40;;;9.50;66.90;;;;;;20726989;28;20103;-79
2022/03/18 00:32:20;;;;;;;3.00;1.80;;;9.50;66.90;;;;;;20693645;28;20133;-79
2022/03/18 00:42:21;;;;;;;2.45;1.63;;;9.50;66.80;;;;;;20709084;28;20280;-79
2022/03/18 00:52:22;;;;;;;3.30;2.08;;;9.50;66.70;;;;;;20724755;28;20445;-76
2022/03/18 01:02:23;;;;;;;3.65;2.33;;;9.50;66.60;;;;;;20693219;28;20030;-76
2022/03/18 01:12:25;;;;;;;3.80;2.00;;;9.50;66.60;;;;;;20740449;28;20080;-76
2022/03/18 01:22:25;;;;;;;4.20;1.80;;;9.40;66.50;;;;;;20741816;28;20033;-76
2022/03/18 01:32:26;;;;;;;3.22;1.95;;;9.40;66.40;;;;;;20706677;28;20091;-80
2022/03/18 01:42:27;;;;;;;5.00;2.22;;;9.40;66.30;;;;;;20721243;28;20429;-80
2022/03/18 01:52:28;;;;;;;5.57;2.83;;;9.40;66.20;;;;;;20737019;28;20038;-80
2022/03/18 02:02:29;;;;;;;2.53;1.48;;;9.40;66.20;;;;;;20704155;28;20080;-80
2022/03/18 02:12:30;;;;;;;4.47;2.10;;;9.40;66.10;;;;;;21058032;22;20050;-79
2022/03/18 02:22:40;;;;;;;3.30;1.75;;;9.40;66.00;;;;;;20637352;28;20457;-79
2022/03/18 02:32:41;;;;;;;2.72;1.70;;;9.40;65.90;;;;;;20621649;28;20100;-80
2022/03/18 02:42:43;;;;;;;2.75;1.73;;;9.40;65.80;;;;;;20651487;28;20038;-79
2022/03/18 02:52:44;;;;;;;3.13;1.50;;;9.40;65.80;;;;;;20634721;28;20065;-80
2022/03/18 03:02:45;;;;;;;2.58;1.45;;;9.30;65.70;;;;;;20649992;28;20470;-79
2022/03/18 03:12:46;;;;;;;2.33;1.30;;;9.30;65.60;;;;;;20617253;28;20045;-80
2022/03/18 03:22:47;;;;;;;3.20;1.83;;;9.30;65.50;;;;;;20632302;28;20493;-79
2022/03/18 03:32:49;;;;;;;2.33;1.50;;;9.30;65.50;;;;;;20615230;28;20065;-80
2022/03/18 03:42:50;;;;;;;2.53;1.63;;;9.30;65.40;;;;;;20647946;28;20042;-80
2022/03/18 03:52:50;;;;;;;2.50;1.45;;;9.30;65.30;;;;;;20647055;28;20034;-80
2022/03/18 04:02:51;;;;;;;2.38;1.20;;;9.30;65.30;;;;;;20631876;28;20045;-80
2022/03/18 04:12:52;;;;;;;2.53;1.52;;;9.20;65.20;;;;;;20613765;28;20138;-79
2022/03/18 04:22:53;;;;;;;2.17;1.42;;;9.20;65.20;;;;;;20631127;28;20042;-79
2022/03/18 04:32:54;;;;;;;2.92;1.73;;;9.20;65.10;;;;;;20645580;28;20042;-79
2022/03/18 04:42:55;;;;;;;2.78;1.40;;;9.20;65.10;;;;;;20628912;28;20034;-78
2022/03/18 04:52:56;;;;;;;3.70;1.60;;;9.20;65.00;;;;;;20644947;28;20512;-78
2022/03/18 05:02:57;;;;;;;4.70;1.67;;;9.20;65.00;;;;;;20628463;28;20034;-78
2022/03/18 05:12:58;;;;;;;3.55;1.73;;;9.20;64.90;;;;;;20619142;28;20034;-78
2022/03/18 05:22:59;;;;;;;4.72;1.60;;;9.10;64.80;;;;;;20658216;28;20034;-78
2022/03/18 05:33:00;;;;;;;2.47;1.60;;;9.10;64.80;;;;;;20657061;28;20050;-78
2022/03/18 05:43:01;;;;;;;3.13;1.63;;;9.10;64.70;;;;;;20671060;28;20579;-79
2022/03/18 05:53:02;;;;;;;1.77;0.93;;;9.10;64.70;;;;;;20655175;28;20137;-78
2022/03/18 06:03:03;;;;;;;3.33;1.85;;;9.10;64.70;;;;;;20639613;28;20453;-78
2022/03/18 06:13:05;;;;;;;4.80;1.33;;;9.10;64.70;;;;;;20653855;28;20046;-78
2022/03/18 06:23:06;;;;;;;4.78;2.40;;;9.10;64.60;;;;;;20635377;28;20039;-78
2022/03/18 06:33:07;;;;;;;4.25;2.15;;;9.00;64.50;;;;;;20593693;28;20422;-79
2022/03/18 06:43:08;;;;;;;4.25;2.00;;;9.10;64.60;;;;;;20618413;28;20441;-81
2022/03/18 06:53:09;;;;;;;5.03;2.17;;;9.00;64.50;;;;;;20580773;28;20034;-76
2022/03/18 07:03:09;;;;;;;4.47;1.92;;;9.00;64.50;;;;;;20550007;28;20027;-75
2022/03/18 07:13:10;;;;;;;5.30;2.47;;;9.00;64.40;;;;;;20634985;28;20305;-78
2022/03/18 07:23:15;;;;;;;3.08;1.85;;;9.00;64.50;;;;;;20586282;28;20285;-77
2022/03/18 07:33:15;;;;;;;4.95;1.95;;;9.00;64.50;;;;;;20629659;28;20121;-79
2022/03/18 07:43:16;;;;;;;5.28;2.42;;;9.00;64.50;;;;;;20549928;28;20062;-77
2022/03/18 07:53:16;;;;;;;4.53;2.30;;;9.00;64.50;;;;;;20636363;28;20393;-77
2022/03/18 08:03:26;;;;;;;3.58;1.95;;;8.90;64.50;;;;;;20612747;28;20448;-76
2022/03/18 08:13:27;;;;;;;4.43;1.42;;;9.00;64.70;;;;;;20639330;28;20487;-75
2022/03/18 08:23:29;;;;;;;3.58;1.70;;;9.00;64.70;;;;;;20626201;28;20030;-74
2022/03/18 08:33:31;;;;;;;5.38;2.15;;;9.00;64.80;;;;;;20619309;28;20034;-75
2022/03/18 08:43:31;;;;;;;2.72;1.63;;;9.00;64.90;;;;;;20631612;28;20049;-75
2022/03/18 08:53:32;;;;;;;4.15;1.85;;;9.00;64.90;;;;;;20674265;28;20046;-74
2022/03/18 09:03:32;;;;;;;2.90;1.70;;;9.10;65.10;;;;;;20657962;28;20030;-77
2022/03/18 09:13:34;;;;;;;11.38;2.78;;;9.10;65.20;;;;;;20655594;28;20117;-76
2022/03/18 09:23:35;;;;;;;4.95;1.20;;;9.10;65.30;;;;;;20654527;28;20069;-76
2022/03/18 09:33:35;;;;;;;7.38;1.67;;;9.10;65.30;;;;;;20653999;28;20451;-77
2022/03/18 09:43:37;;;;;;;5.00;2.33;;;9.20;65.50;;;;;;20653207;28;20030;-76
2022/03/18 09:53:37;;;;;;;2.50;1.30;;;9.20;65.60;;;;;;20621634;28;20379;-77
2022/03/18 10:03:41;;;;;;;6.38;1.42;;;9.10;65.60;;;;;;20635652;28;20030;-73
2022/03/18 10:13:55;;;;;;;5.72;1.48;;;9.20;65.80;;;;;;20654394;28;20041;-79
2022/03/18 10:24:09;;;;;;;7.95;2.35;;;9.10;66.00;;;;;;20643792;28;20034;-78
2022/03/18 10:44:31;;;;;;;5.13;1.20;;;9.20;66.30;;;;;;20562205;28;20035;-79
2022/03/18 10:54:32;;;;;;;2.42;1.17;;;9.20;66.40;;;;;;20569710;28;20046;-76
2022/03/18 11:04:32;;;;;;;6.00;1.73;;;9.10;66.40;;;;;;20648211;28;20085;-74
2022/03/18 11:14:34;;;;;;;5.10;2.80;;;9.10;66.40;;;;;;20632629;28;20066;-78
2022/03/18 11:24:36;;;;;;;4.07;0.98;;;9.20;66.50;;;;;;20618654;28;20030;-75
2022/03/18 11:34:50;;;;;;;4.53;1.13;;;9.20;66.50;;;;;;20598963;28;20076;-73
2022/03/18 11:44:58;;;;;;;8.85;1.60;;;9.20;67.30;;;;;;20574255;28;20043;-77
2022/03/18 11:55:10;;;;;;;5.63;1.33;;;9.20;66.80;;;;;;20569459;28;20057;-75
2022/03/18 12:05:10;;;;;;;2.25;1.42;;;9.10;66.90;;;;;;20584599;28;20038;-76
2022/03/18 12:15:15;;;;;;;5.38;1.48;;;9.10;67.10;;;;;;20578122;28;20061;-77
2022/03/18 12:25:16;;;;;;;2.72;1.25;;;9.10;67.30;;;;;;20619612;28;20026;-74
2022/03/18 12:35:18;;;;;;;2.00;1.08;;;9.10;67.50;;;;;;20563697;28;20133;-75
2022/03/18 12:45:32;;;;;;;3.28;0.90;;;9.20;67.80;;;;;;20625083;28;20057;-76
2022/03/18 12:55:32;;;;;;;4.57;1.27;;;9.20;67.60;;;;;;20632808;28;20109;-78
2022/03/18 13:05:52;;;;;;;1.52;0.80;;;9.20;67.70;;;;;;20643481;28;20501;-77
2022/03/18 13:16:03;;;;;;;9.10;1.13;;;9.20;67.90;;;;;;20575052;28;20648;-77
2022/03/18 13:26:04;;;;;;;4.28;0.98;;;9.20;67.90;;;;;;20628506;28;20047;-76
2022/03/18 13:36:05;;;;;;;0.43;0.40;;;9.30;67.90;;;;;;20638711;28;20034;-77
2022/03/18 13:46:17;;;;;;;2.83;0.73;;;9.30;67.70;;;;;;20576338;28;20130;-77
2022/03/18 13:56:19;;;;;;;3.50;0.73;;;9.40;67.80;;;;;;20608485;28;20046;-76
2022/03/18 14:06:19;;;;;;;5.28;1.45;;;9.40;67.80;;;;;;20623138;28;20126;-76
2022/03/18 14:16:20;;;;;;;1.65;0.70;;;9.40;67.90;;;;;;20623318;28;20034;-75
2022/03/18 14:26:21;;;;;;;9.43;3.22;;;9.50;68.70;;;;;;20623424;28;20034;-80
2022/03/18 14:36:22;;;;;;;7.20;2.97;;;9.50;68.20;;;;;;20589492;28;20043;-79
2022/03/18 14:46:22;;;;;;;6.80;2.87;;;9.40;68.30;;;;;;20552318;28;20042;-78
2022/03/18 14:56:26;;;;;;;4.25;2.30;;;9.50;68.20;;;;;;20551721;28;20357;-78
2022/03/18 15:06:27;;;;;;;8.80;2.70;;;9.50;68.10;;;;;;20566049;28;20039;-79
2022/03/18 15:16:29;;;;;;;6.47;2.35;;;9.60;67.90;;;;;;20625956;28;20046;-80
2022/03/18 15:26:30;;;;;;;6.28;2.33;;;9.80;68.00;;;;;;20568582;28;20066;-79
2022/03/18 15:36:30;;;;;;;6.50;2.33;;;9.80;67.90;;;;;;20599262;28;20450;-82
2022/03/18 15:46:32;;;;;;;5.88;1.98;;;9.90;68.00;;;;;;20648656;28;20481;-81
2022/03/18 15:56:35;;;;;;;3.85;1.45;;;10.00;67.90;;;;;;20630963;28;20050;-80
2022/03/18 16:06:37;;;;;;;5.43;1.38;;;10.00;67.70;;;;;;20639395;28;20027;-80
2022/03/18 16:16:37;;;;;;;7.20;2.05;;;10.10;67.70;;;;;;20563211;28;20049;-81
2022/03/18 16:26:43;;;;;;;7.63;2.33;;;10.20;67.80;;;;;;20532095;28;20035;-80
2022/03/18 16:36:45;;;;;;;10.83;2.10;;;10.30;67.80;;;;;;20566473;28;20034;-81
2022/03/18 16:57:05;;;;;;;3.00;1.17;;;10.20;67.70;;;;;;20549759;28;20490;-79
2022/03/18 17:07:06;;;;;;;5.75;1.17;;;10.20;68.00;;;;;;20551028;28;20085;-79
2022/03/18 17:17:07;;;;;;;9.60;2.30;;;10.20;68.10;;;;;;20639650;28;20054;-84
2022/03/18 17:27:08;;;;;;;2.45;0.82;;;10.20;68.40;;;;;;20640943;28;20511;-82
2022/03/18 17:37:09;;;;;;;2.83;1.35;;;10.10;68.50;;;;;;20624080;28;20030;-74
2022/03/18 17:47:11;;;;;;;4.55;0.85;;;10.10;68.60;;;;;;20592158;28;20037;-86
2022/03/18 17:57:19;;;;;;;4.88;1.67;;;10.00;68.60;;;;;;20527716;28;20035;-79
2022/03/18 18:07:20;;;;;;;13.73;2.03;;;10.00;68.70;;;;;;20544780;28;20378;-82
2022/03/18 18:17:21;;;;;;;3.28;0.68;;;10.00;68.70;;;;;;20557109;28;20047;-78
2022/03/18 18:27:24;;;;;;;2.92;1.00;;;10.00;68.80;;;;;;20554289;28;20387;-80
2022/03/18 18:37:25;;;;;;;4.63;1.00;;;10.00;69.00;;;;;;20554849;28;20129;-79
2022/03/18 18:47:25;;;;;;;3.67;0.90;;;10.00;69.10;;;;;;20571529;28;20164;-78
2022/03/18 18:57:29;;;;;;;2.03;0.80;;;9.90;69.00;;;;;;20632960;28;20057;-78
2022/03/18 19:07:30;;;;;;;1.02;0.60;;;9.90;69.00;;;;;;20615992;28;20359;-78
2022/03/18 19:17:32;;;;;;;5.72;1.13;;;9.90;69.00;;;;;;20646011;28;20129;-79
2022/03/18 19:27:34;;;;;;;1.67;0.60;;;9.90;68.90;;;;;;20630764;28;20517;-78
2022/03/18 19:37:35;;;;;;;1.73;0.70;;;9.90;68.80;;;;;;20608641;28;20069;-77
2022/03/18 19:47:37;;;;;;;2.75;0.70;;;9.80;68.70;;;;;;20626210;28;20054;-77
2022/03/18 20:07:56;;;;;;;1.90;0.65;;;9.80;68.70;;;;;;20641869;28;20066;-79
2022/03/18 20:17:57;;;;;;;4.30;0.60;;;9.80;68.60;;;;;;20638879;28;20368;-78
2022/03/18 20:27:58;;;;;;;1.02;0.68;;;9.80;68.60;;;;;;20621796;28;20341;-77
2022/03/18 20:37:59;;;;;;;1.60;0.60;;;9.80;68.60;;;;;;20635605;28;20037;-77
2022/03/18 20:47:59;;;;;;;0.63;0.50;;;9.80;68.50;;;;;;20651405;28;20582;-76
2022/03/18 20:58:03;;;;;;;1.38;0.50;;;9.80;68.40;;;;;;20621922;28;20308;-77
2022/03/18 21:08:04;;;;;;;1.42;0.47;;;9.80;68.40;;;;;;20597994;28;20043;-76
2022/03/18 21:18:06;;;;;;;1.58;0.95;;;9.80;68.40;;;;;;20582553;28;20035;-76
2022/03/18 21:38:26;;;;;;;0.95;0.52;;;9.80;68.30;;;;;;20592104;28;20414;-77
2022/03/18 21:48:27;;;;;;;0.60;0.40;;;9.80;68.30;;;;;;20541354;28;20041;-77
2022/03/18 21:58:28;;;;;;;1.38;0.50;;;9.70;68.20;;;;;;20588184;28;20041;-76
2022/03/18 22:08:28;;;;;;;0.98;0.47;;;9.70;68.20;;;;;;20569633;28;20625;-76
2022/03/18 22:18:29;;;;;;;1.27;0.43;;;9.80;68.20;;;;;;20666966;28;20053;-77
2022/03/18 22:28:30;;;;;;;1.35;0.50;;;9.70;68.20;;;;;;20650558;28;20058;-76
2022/03/18 22:38:30;;;;;;;0.70;0.50;;;9.70;68.20;;;;;;20649407;28;20045;-76
2022/03/18 22:48:32;;;;;;;1.67;0.70;;;9.70;68.20;;;;;;20633682;28;20049;-76
2022/03/18 22:58:33;;;;;;;0.82;0.60;;;9.70;68.10;;;;;;20632225;28;20131;-77
2022/03/18 23:08:34;;;;;;;1.20;0.60;;;9.70;68.10;;;;;;20622917;28;20045;-76
2022/03/18 23:18:37;;;;;;;1.50;0.63;;;9.70;68.10;;;;;;20630172;28;20375;-76
2022/03/18 23:28:38;;;;;;;1.60;0.80;;;9.70;68.10;;;;;;20645212;28;20038;-76
2022/03/18 23:38:39;;;;;;;1.93;0.70;;;9.80;68.10;;;;;;20629189;28;20038;-76
2022/03/18 23:48:39;;;;;;;1.33;0.80;;;9.70;68.10;;;;;;20644953;28;20316;-77
2022/03/18 23:58:40;;;;;;;3.08;0.80;;;9.70;68.10;;;;;;20628525;28;20297;-76
